createdAt,value
2023-03-21T00:01:05.264Z,19.47
2023-03-21T00:03:35.088Z,17.40
2023-03-21T00:06:07.101Z,20.20
2023-03-21T00:08:35.409Z,19.40
2023-03-21T00:11:08.369Z,20.43
2023-03-21T00:13:38.507Z,22.67
2023-03-21T00:16:19.559Z,22.67
2023-03-21T00:18:59.407Z,15.70
2023-03-21T00:22:03.673Z,20.87
2023-03-21T00:24:20.246Z,23.57
2023-03-21T00:26:48.253Z,26.33
2023-03-21T00:29:16.809Z,20.90
2023-03-21T00:31:47.772Z,22.67
2023-03-21T00:34:22.487Z,25.33
2023-03-21T00:37:01.578Z,23.00
2023-03-21T00:39:29.755Z,20.17
2023-03-21T00:41:57.808Z,21.23
2023-03-21T00:44:25.916Z,22.53
2023-03-21T00:47:06.468Z,22.70
2023-03-21T00:49:38.418Z,21.43
2023-03-21T00:52:18.564Z,23.57
2023-03-21T00:54:52.616Z,21.67
2023-03-21T00:57:29.311Z,20.27
2023-03-21T01:00:07.731Z,23.47
2023-03-21T01:02:38.066Z,21.53
2023-03-21T01:05:11.427Z,23.33
2023-03-21T01:07:39.391Z,17.70
2023-03-21T01:10:08.270Z,23.97
2023-03-21T01:12:36.196Z,21.87
2023-03-21T01:15:05.484Z,19.27
2023-03-21T01:17:33.322Z,29.17
2023-03-21T01:20:01.401Z,23.37
2023-03-21T01:22:30.825Z,22.93
2023-03-21T01:25:12.123Z,24.43
2023-03-21T01:27:47.033Z,22.67
2023-03-21T01:30:21.602Z,23.33
2023-03-21T01:32:51.355Z,29.80
2023-03-21T01:35:19.647Z,28.53
2023-03-21T01:37:50.099Z,31.80
2023-03-21T01:40:22.131Z,23.20
2023-03-21T01:42:52.662Z,31.47
2023-03-21T01:46:23.408Z,28.40
2023-03-21T01:49:16.899Z,25.93
2023-03-21T01:51:56.618Z,26.57
2023-03-21T01:54:32.278Z,22.47
2023-03-21T01:59:40.602Z,22.23
2023-03-21T02:02:37.576Z,20.70
2023-03-21T02:05:31.163Z,24.70
2023-03-21T02:08:00.451Z,21.77
2023-03-21T02:10:32.567Z,22.83
2023-03-21T02:13:09.780Z,19.53
2023-03-21T02:15:47.194Z,19.53
2023-03-21T02:18:36.328Z,25.57
2023-03-21T02:22:03.508Z,20.70
2023-03-21T02:25:16.289Z,20.77
2023-03-21T02:27:59.505Z,26.30
2023-03-21T02:31:05.430Z,21.23
2023-03-21T02:34:03.820Z,24.33
2023-03-21T02:37:05.548Z,24.43
2023-03-21T02:39:50.753Z,23.33
2023-03-21T02:42:29.101Z,25.80
2023-03-21T02:45:05.277Z,18.63
2023-03-21T02:47:43.980Z,25.00
2023-03-21T02:50:21.020Z,25.90
2023-03-21T02:52:54.124Z,22.20
2023-03-21T02:55:27.057Z,24.03
2023-03-21T02:58:12.396Z,25.80
2023-03-21T03:00:47.514Z,25.75
2023-03-21T03:03:33.878Z,30.77
2023-03-21T03:06:15.370Z,30.47
2023-03-21T03:09:07.578Z,29.43
2023-03-21T03:11:39.816Z,28.87
2023-03-21T03:14:46.949Z,29.60
2023-03-21T03:17:40.272Z,27.70
2023-03-21T03:20:22.160Z,27.23
2023-03-21T03:23:04.164Z,25.90
2023-03-21T03:25:43.673Z,24.53
2023-03-21T03:28:22.678Z,28.00
2023-03-21T03:31:07.938Z,22.95
2023-03-21T03:33:56.640Z,24.67
2023-03-21T03:36:34.256Z,24.20
2023-03-21T03:39:10.332Z,25.43
2023-03-21T03:42:07.805Z,24.58
2023-03-21T03:44:42.230Z,23.97
2023-03-21T03:47:29.891Z,26.57
2023-03-21T03:50:09.216Z,27.30
2023-03-21T03:52:55.262Z,19.73
2023-03-21T03:55:28.219Z,25.70
2023-03-21T03:58:04.691Z,24.57
2023-03-21T04:00:35.776Z,20.93
2023-03-21T04:03:07.301Z,24.57
2023-03-21T04:05:36.515Z,27.57
2023-03-21T04:08:06.497Z,24.30
2023-03-21T04:10:41.851Z,23.20
2023-03-21T04:13:11.504Z,21.97
2023-03-21T04:15:50.820Z,19.57
2023-03-21T04:18:19.144Z,20.93
2023-03-21T04:20:49.255Z,23.33
2023-03-21T04:23:19.400Z,22.57
2023-03-21T04:25:56.389Z,21.07
2023-03-21T04:28:36.291Z,24.60
2023-03-21T04:31:36.544Z,23.50
2023-03-21T04:34:14.333Z,26.30
2023-03-21T04:36:50.703Z,25.08
2023-03-21T04:39:19.503Z,26.07
2023-03-21T04:41:50.528Z,23.77
2023-03-21T04:44:19.856Z,22.67
2023-03-21T04:46:48.137Z,23.13
2023-03-21T04:49:16.700Z,24.80
2023-03-21T04:51:45.660Z,25.07
2023-03-21T04:54:18.535Z,23.73
2023-03-21T04:56:46.423Z,22.53
2023-03-21T04:59:16.641Z,22.40
2023-03-21T05:01:46.250Z,22.37
2023-03-21T05:04:14.877Z,22.27
2023-03-21T05:06:45.135Z,25.57
2023-03-21T05:09:13.648Z,22.90
2023-03-21T05:11:42.029Z,21.63
2023-03-21T05:14:16.490Z,22.67
2023-03-21T05:16:53.391Z,21.23
2023-03-21T05:19:25.903Z,20.00
2023-03-21T05:21:54.137Z,23.20
2023-03-21T05:24:26.345Z,22.30
2023-03-21T05:26:56.050Z,26.97
2023-03-21T05:29:26.584Z,24.60
2023-03-21T05:32:01.693Z,25.80
2023-03-21T05:34:29.706Z,23.50
2023-03-21T05:36:57.526Z,22.67
2023-03-21T05:39:29.086Z,23.43
2023-03-21T05:42:04.375Z,20.98
2023-03-21T05:44:32.369Z,19.13
2023-03-21T05:47:06.547Z,22.67
2023-03-21T05:49:45.834Z,19.80
2023-03-21T05:52:14.191Z,22.47
2023-03-21T05:54:42.196Z,21.83
2023-03-21T05:57:10.536Z,23.93
2023-03-21T06:00:07.781Z,22.40
2023-03-21T06:02:46.219Z,24.57
2023-03-21T06:05:32.997Z,24.67
2023-03-21T06:08:01.301Z,25.70
2023-03-21T06:10:29.544Z,26.40
2023-03-21T06:12:59.137Z,27.87
2023-03-21T06:15:30.597Z,31.53
2023-03-21T06:18:07.547Z,30.70
2023-03-21T06:20:38.295Z,34.63
2023-03-21T06:23:11.087Z,35.77
2023-03-21T06:25:39.522Z,31.80
2023-03-21T06:28:07.752Z,35.27
2023-03-21T06:30:40.532Z,39.10
2023-03-21T06:33:17.750Z,38.87
2023-03-21T06:35:52.526Z,38.57
2023-03-21T06:38:21.134Z,38.42
2023-03-21T06:40:50.120Z,40.27
2023-03-21T06:43:18.687Z,41.17
2023-03-21T06:45:47.685Z,43.20
2023-03-21T06:48:16.914Z,71.53
2023-03-21T06:50:51.525Z,71.27
2023-03-21T06:53:27.472Z,85.87
2023-03-21T06:56:15.321Z,100.50
2023-03-21T06:58:44.080Z,82.37
2023-03-21T07:01:21.117Z,109.77
2023-03-21T07:03:59.542Z,93.70
2023-03-21T07:06:30.157Z,95.33
2023-03-21T07:08:58.939Z,83.50
2023-03-21T07:11:27.081Z,74.90
2023-03-21T07:13:55.247Z,94.67
2023-03-21T07:16:25.068Z,90.60
2023-03-21T07:18:53.330Z,90.33
2023-03-21T07:21:22.859Z,108.17
2023-03-21T07:23:50.943Z,90.17
2023-03-21T07:26:18.892Z,95.73
2023-03-21T07:28:46.844Z,94.13
2023-03-21T07:31:17.212Z,91.27
2023-03-21T07:33:45.648Z,75.37
2023-03-21T07:36:15.911Z,93.73
2023-03-21T07:38:46.284Z,87.97
2023-03-21T07:43:48.143Z,93.50
2023-03-21T07:46:16.069Z,82.10
2023-03-21T07:48:44.064Z,76.47
2023-03-21T07:51:11.974Z,87.90
2023-03-21T07:53:41.777Z,101.97
2023-03-21T07:56:11.286Z,103.53
2023-03-21T07:58:39.174Z,106.53
2023-03-21T08:01:07.197Z,89.90
2023-03-21T08:03:35.047Z,86.07
2023-03-21T08:06:02.811Z,84.93
2023-03-21T08:08:30.737Z,91.07
2023-03-21T08:10:58.725Z,86.63
2023-03-21T08:13:28.326Z,84.17
2023-03-21T08:15:56.852Z,91.73
2023-03-21T08:18:25.392Z,87.47
2023-03-21T08:20:55.798Z,82.00
2023-03-21T08:23:25.372Z,80.90
2023-03-21T08:25:54.083Z,70.30
2023-03-21T08:28:22.786Z,75.00
2023-03-21T08:30:52.121Z,72.40
2023-03-21T08:33:21.978Z,82.53
2023-03-21T08:35:50.392Z,72.37
2023-03-21T08:38:18.290Z,78.20
2023-03-21T08:40:46.542Z,81.27
2023-03-21T08:43:14.994Z,81.57
2023-03-21T08:45:42.996Z,74.57
2023-03-21T08:48:12.397Z,77.03
2023-03-21T08:50:40.411Z,96.90
2023-03-21T08:53:08.313Z,71.93
2023-03-21T08:55:36.617Z,72.10
2023-03-21T08:58:05.362Z,75.53
2023-03-21T09:00:33.441Z,78.30
2023-03-21T09:03:01.339Z,69.63
2023-03-21T09:05:31.124Z,89.23
2023-03-21T09:08:01.477Z,86.17
2023-03-21T09:10:30.655Z,67.17
2023-03-21T09:12:58.888Z,72.77
2023-03-21T09:15:28.812Z,70.17
2023-03-21T09:17:58.660Z,77.83
2023-03-21T09:20:31.244Z,75.63
2023-03-21T09:23:01.658Z,73.77
2023-03-21T09:25:31.156Z,74.33
2023-03-21T09:27:59.504Z,73.60
2023-03-21T09:30:27.508Z,65.93
2023-03-21T09:32:55.676Z,62.33
2023-03-21T09:35:24.829Z,75.93
2023-03-21T09:37:53.507Z,64.73
2023-03-21T09:40:40.971Z,69.07
2023-03-21T09:43:28.754Z,60.33
2023-03-21T09:46:07.298Z,54.10
2023-03-21T09:48:56.732Z,63.93
2023-03-21T09:51:39.535Z,59.20
2023-03-21T09:54:17.688Z,64.23
2023-03-21T09:56:49.565Z,66.53
2023-03-21T09:59:28.113Z,64.03
2023-03-21T10:01:58.563Z,68.10
2023-03-21T10:04:27.585Z,65.37
2023-03-21T10:07:01.812Z,62.73
2023-03-21T10:09:32.526Z,62.93
2023-03-21T10:12:09.191Z,66.10
2023-03-21T10:14:43.917Z,64.43
2023-03-21T10:17:28.415Z,59.75
2023-03-21T10:20:13.478Z,62.60
2023-03-21T10:22:43.643Z,60.63
2023-03-21T10:25:17.181Z,53.87
2023-03-21T10:27:50.737Z,65.83
2023-03-21T10:30:33.259Z,57.40
2023-03-21T10:33:09.499Z,56.93
2023-03-21T10:35:41.732Z,44.77
2023-03-21T10:38:17.541Z,65.20
2023-03-21T10:40:46.976Z,52.00
2023-03-21T10:43:34.105Z,53.50
2023-03-21T10:46:14.515Z,60.93
2023-03-21T10:48:47.479Z,61.27
2023-03-21T10:51:21.250Z,55.77
2023-03-21T10:53:55.461Z,48.57
2023-03-21T10:56:28.285Z,62.60
2023-03-21T10:59:02.754Z,56.33
2023-03-21T11:01:39.338Z,54.00
2023-03-21T11:04:15.520Z,73.07
2023-03-21T11:06:55.297Z,64.63
2023-03-21T11:09:25.561Z,60.27
2023-03-21T11:12:02.665Z,56.97
2023-03-21T11:14:39.104Z,61.33
2023-03-21T11:17:22.025Z,56.73
2023-03-21T11:19:54.074Z,62.90
2023-03-21T11:22:26.287Z,61.77
2023-03-21T11:24:59.876Z,55.23
2023-03-21T11:27:31.245Z,49.20
2023-03-21T11:30:05.302Z,58.23
2023-03-21T11:32:38.227Z,62.27
2023-03-21T11:35:15.610Z,63.30
2023-03-21T11:37:47.984Z,62.50
2023-03-21T11:40:24.816Z,65.53
2023-03-21T11:42:56.533Z,58.93
2023-03-21T11:45:28.915Z,61.90
2023-03-21T11:48:01.024Z,65.00
2023-03-21T11:50:36.222Z,66.90
2023-03-21T11:53:31.304Z,60.03
2023-03-21T11:56:16.489Z,59.42
2023-03-21T12:01:44.651Z,61.17
2023-03-21T12:04:27.550Z,48.57
2023-03-21T12:07:09.492Z,55.43
2023-03-21T12:09:43.439Z,65.03
2023-03-21T12:12:39.126Z,54.50
2023-03-21T12:15:22.660Z,54.50
2023-03-21T12:18:08.685Z,54.30
2023-03-21T12:20:45.964Z,51.63
2023-03-21T12:23:47.510Z,49.97
2023-03-21T12:26:28.001Z,51.23
2023-03-21T12:29:21.892Z,50.23
2023-03-21T12:32:11.108Z,46.00
2023-03-21T12:35:19.767Z,48.47
2023-03-21T12:38:08.398Z,43.67
2023-03-21T12:40:55.343Z,40.93
2023-03-21T12:43:33.825Z,37.57
2023-03-21T12:46:09.994Z,41.13
2023-03-21T12:48:47.771Z,35.63
2023-03-21T12:51:22.850Z,31.40
2023-03-21T12:54:03.430Z,28.97
2023-03-21T12:56:38.431Z,26.90
2023-03-21T12:59:22.837Z,25.85
2023-03-21T13:01:56.298Z,23.43
2023-03-21T13:04:49.837Z,22.67
2023-03-21T13:07:25.486Z,18.63
2023-03-21T13:09:57.501Z,22.92
2023-03-21T13:12:43.645Z,21.43
2023-03-21T13:15:36.319Z,18.67
2023-03-21T13:18:19.587Z,20.67
2023-03-21T13:20:56.452Z,18.57
2023-03-21T13:23:35.284Z,18.87
2023-03-21T13:26:10.074Z,18.53
2023-03-21T13:28:43.731Z,15.63
2023-03-21T13:31:20.977Z,19.17
2023-03-21T13:33:54.350Z,17.52
2023-03-21T13:36:26.354Z,21.73
2023-03-21T13:39:04.711Z,17.83
2023-03-21T13:41:38.910Z,19.02
2023-03-21T13:44:21.473Z,20.30
2023-03-21T13:47:00.562Z,19.80
2023-03-21T13:49:34.834Z,18.63
2023-03-21T13:52:27.538Z,20.43
2023-03-21T13:54:57.856Z,17.50
2023-03-21T13:57:39.485Z,18.40
2023-03-21T14:00:30.430Z,22.33
2023-03-21T14:03:06.355Z,19.80
2023-03-21T14:05:35.289Z,15.02
2023-03-21T14:08:15.224Z,18.10
2023-03-21T14:10:54.160Z,18.47
2023-03-21T14:13:29.831Z,16.75
2023-03-21T14:16:08.218Z,14.35
2023-03-21T14:19:00.061Z,13.75
2023-03-21T14:21:31.907Z,15.13
2023-03-21T14:24:02.577Z,12.60
2023-03-21T14:26:41.041Z,14.23
2023-03-21T14:29:25.555Z,9.30
2023-03-21T14:31:56.134Z,12.40
2023-03-21T14:34:26.501Z,11.85
2023-03-21T14:36:59.158Z,8.60
2023-03-21T14:39:31.158Z,8.35
2023-03-21T14:42:06.100Z,6.82
2023-03-21T14:44:53.468Z,7.93
2023-03-21T14:47:27.890Z,7.40
2023-03-21T14:49:59.088Z,7.13
2023-03-21T14:52:34.914Z,7.22
2023-03-21T14:55:15.587Z,6.78
2023-03-21T14:57:46.998Z,7.00
2023-03-21T15:00:24.522Z,6.30
2023-03-21T15:02:56.216Z,8.90
2023-03-21T15:05:31.440Z,8.48
2023-03-21T15:08:07.026Z,7.75
2023-03-21T15:10:35.632Z,8.15
2023-03-21T15:13:17.272Z,5.68
2023-03-21T15:15:46.748Z,6.90
2023-03-21T15:18:22.666Z,7.18
2023-03-21T15:20:53.147Z,8.90
2023-03-21T15:23:31.136Z,7.60
2023-03-21T15:26:03.107Z,6.93
2023-03-21T15:28:37.975Z,8.57
2023-03-21T15:31:16.100Z,8.00
2023-03-21T15:33:47.922Z,6.72
2023-03-21T15:36:21.364Z,6.43
2023-03-21T15:38:51.251Z,5.13
2023-03-21T15:41:30.686Z,6.40
2023-03-21T15:44:14.247Z,7.38
2023-03-21T15:46:45.872Z,8.23
2023-03-21T15:49:28.396Z,7.47
2023-03-21T15:52:05.671Z,6.07
2023-03-21T15:54:41.317Z,8.17
2023-03-21T15:57:23.425Z,7.25
2023-03-21T15:59:59.508Z,6.72
2023-03-21T16:02:31.659Z,9.15
2023-03-21T16:05:15.447Z,6.32
2023-03-21T16:07:46.536Z,6.22
2023-03-21T16:10:28.873Z,6.50
2023-03-21T16:12:57.140Z,7.25
2023-03-21T16:15:27.513Z,8.60
2023-03-21T16:17:58.638Z,9.15
2023-03-21T16:20:34.107Z,9.00
2023-03-21T16:25:33.467Z,6.68
2023-03-21T16:28:01.445Z,7.35
2023-03-21T16:30:30.806Z,8.65
2023-03-21T16:32:58.806Z,10.35
2023-03-21T16:35:27.774Z,10.05
2023-03-21T16:37:55.842Z,11.27
2023-03-21T16:40:30.136Z,10.18
2023-03-21T16:42:58.431Z,9.73
2023-03-21T16:45:28.811Z,8.30
2023-03-21T16:48:01.499Z,8.63
2023-03-21T16:50:34.336Z,7.70
2023-03-21T16:53:02.905Z,7.75
2023-03-21T16:55:33.397Z,9.47
2023-03-21T16:58:05.691Z,7.93
2023-03-21T17:00:34.043Z,7.37
2023-03-21T17:03:15.122Z,10.77
2023-03-21T17:05:43.164Z,8.10
2023-03-21T17:08:18.325Z,7.87
2023-03-21T17:10:48.106Z,11.48
2023-03-21T17:13:16.094Z,8.50
2023-03-21T17:15:43.920Z,9.48
2023-03-21T17:18:13.189Z,9.73
2023-03-21T17:20:42.033Z,7.68
2023-03-21T17:23:10.873Z,9.37
2023-03-21T17:25:39.101Z,9.80
2023-03-21T17:28:06.934Z,7.97
2023-03-21T17:30:39.223Z,6.67
2023-03-21T17:33:07.590Z,9.37
2023-03-21T17:35:36.813Z,11.03
2023-03-21T17:38:06.772Z,14.13
2023-03-21T17:40:34.809Z,9.33
2023-03-21T17:43:02.813Z,7.87
2023-03-21T17:45:30.723Z,9.57
2023-03-21T17:47:58.749Z,8.23
2023-03-21T17:50:34.600Z,8.40
2023-03-21T17:53:04.586Z,8.03
2023-03-21T17:55:34.847Z,7.50
2023-03-21T17:58:06.204Z,8.80
2023-03-21T18:00:35.435Z,6.30
2023-03-21T18:03:03.589Z,10.17
2023-03-21T18:05:31.515Z,8.10
2023-03-21T18:08:10.172Z,9.30
2023-03-21T18:10:42.454Z,9.20
2023-03-21T18:13:11.449Z,8.63
2023-03-21T18:15:44.112Z,9.03
2023-03-21T18:18:13.447Z,10.63
2023-03-21T18:20:52.044Z,10.20
2023-03-21T18:23:21.619Z,9.77
2023-03-21T18:25:52.475Z,11.67
2023-03-21T18:28:21.775Z,11.57
2023-03-21T18:31:07.708Z,10.20
2023-03-21T18:33:40.257Z,13.57
2023-03-21T18:36:09.777Z,15.93
2023-03-21T18:38:38.894Z,15.90
2023-03-21T18:41:09.373Z,16.93
2023-03-21T18:44:01.304Z,18.57
2023-03-21T18:46:27.405Z,21.47
2023-03-21T18:48:55.658Z,21.50
2023-03-21T18:51:24.051Z,29.17
2023-03-21T18:53:52.263Z,21.90
2023-03-21T18:57:20.100Z,22.40
2023-03-21T18:59:09.242Z,19.47
2023-03-21T19:01:38.001Z,22.53
2023-03-21T19:04:20.837Z,27.50
2023-03-21T19:06:50.968Z,26.27
2023-03-21T19:09:29.634Z,22.13
2023-03-21T19:12:01.468Z,30.20
2023-03-21T19:14:30.482Z,36.63
2023-03-21T19:17:47.490Z,31.00
2023-03-21T19:19:47.751Z,40.63
2023-03-21T19:22:16.009Z,43.13
2023-03-21T19:24:44.392Z,41.07
2023-03-21T19:27:14.823Z,45.53
2023-03-21T19:29:43.268Z,43.90
2023-03-21T19:32:11.940Z,36.47
2023-03-21T19:34:42.450Z,44.77
2023-03-21T19:37:10.369Z,39.70
2023-03-21T19:39:38.661Z,31.50
2023-03-21T19:42:16.791Z,32.27
2023-03-21T19:44:46.905Z,20.07
2023-03-21T19:47:14.957Z,23.20
2023-03-21T19:50:29.603Z,20.67
2023-03-21T19:52:31.857Z,24.80
2023-03-21T19:54:59.659Z,24.43
2023-03-21T19:57:27.442Z,23.27
2023-03-21T19:59:56.659Z,23.50
2023-03-21T20:02:35.496Z,25.70
2023-03-21T20:05:06.708Z,23.63
2023-03-21T20:07:34.881Z,23.53
2023-03-21T20:10:03.234Z,25.30
2023-03-21T20:12:33.206Z,22.27
2023-03-21T20:15:16.598Z,22.67
2023-03-21T20:17:47.475Z,23.03
2023-03-21T20:20:18.284Z,24.97
2023-03-21T20:23:06.371Z,21.13
2023-03-21T20:25:40.562Z,19.90
2023-03-21T20:28:24.732Z,22.30
2023-03-21T20:31:00.984Z,22.40
2023-03-21T20:33:30.096Z,19.60
2023-03-21T20:38:52.089Z,20.83
2023-03-21T20:41:20.691Z,20.17
2023-03-21T20:46:38.274Z,17.23
2023-03-21T20:49:09.295Z,18.97
2023-03-21T20:54:27.912Z,16.90
2023-03-21T20:56:56.622Z,17.13
2023-03-21T20:59:28.119Z,16.43
2023-03-21T21:01:59.111Z,19.33
2023-03-21T21:04:52.397Z,15.87
2023-03-21T21:07:22.474Z,17.80
2023-03-21T21:09:50.479Z,16.13
2023-03-21T21:12:19.252Z,17.87
2023-03-21T21:14:49.002Z,19.40
2023-03-21T21:17:40.401Z,19.87
2023-03-21T21:20:20.737Z,21.77
2023-03-21T21:26:25.385Z,16.83
2023-03-21T21:28:54.000Z,17.10
2023-03-21T21:31:21.888Z,16.57
2023-03-21T21:33:54.460Z,17.40
2023-03-21T21:36:23.277Z,19.53
2023-03-21T21:38:53.147Z,15.50
2023-03-21T21:41:24.461Z,16.37
2023-03-21T21:43:52.396Z,16.97
2023-03-21T21:46:20.353Z,17.03
2023-03-21T21:48:52.708Z,15.17
2023-03-21T21:51:26.345Z,15.60
2023-03-21T21:53:55.829Z,16.57
2023-03-21T21:56:25.165Z,16.80
2023-03-21T21:58:54.678Z,17.23
2023-03-21T22:01:23.021Z,14.93
2023-03-21T22:03:52.585Z,15.80
2023-03-21T22:06:20.441Z,16.90
2023-03-21T22:08:51.857Z,16.63
2023-03-21T22:11:19.695Z,17.10
2023-03-21T22:13:48.487Z,17.77
2023-03-21T22:16:16.984Z,15.57
2023-03-21T22:18:45.725Z,16.70
2023-03-21T22:21:14.927Z,16.93
2023-03-21T22:23:43.189Z,17.07
2023-03-21T22:26:11.232Z,16.57
2023-03-21T22:28:42.310Z,14.30
2023-03-21T22:31:17.654Z,14.80
2023-03-21T22:33:45.972Z,16.80
2023-03-21T22:36:15.675Z,15.13
2023-03-21T22:38:43.972Z,15.23
2023-03-21T22:41:11.731Z,17.43
2023-03-21T22:43:40.018Z,16.87
2023-03-21T22:46:08.126Z,15.00
2023-03-21T22:48:36.540Z,17.17
2023-03-21T22:51:04.963Z,18.00
2023-03-21T22:53:36.617Z,16.40
2023-03-21T22:56:06.849Z,17.53
2023-03-21T22:58:36.530Z,15.77
2023-03-21T23:01:06.345Z,16.07
2023-03-21T23:03:34.581Z,15.43
2023-03-21T23:06:03.515Z,15.00
2023-03-21T23:08:34.290Z,14.23
2023-03-21T23:11:06.662Z,15.93
2023-03-21T23:13:37.550Z,16.50
2023-03-21T23:16:07.284Z,15.23
2023-03-21T23:18:37.250Z,16.47
2023-03-21T23:21:13.115Z,16.27
2023-03-21T23:23:50.124Z,15.68
2023-03-21T23:26:22.299Z,15.80
2023-03-21T23:28:51.229Z,17.33
2023-03-21T23:31:30.298Z,13.27
2023-03-21T23:34:00.294Z,13.33
2023-03-21T23:36:31.244Z,15.00
2023-03-21T23:39:00.876Z,14.93
2023-03-21T23:41:28.716Z,15.07
2023-03-21T23:43:57.701Z,14.50
2023-03-21T23:46:26.781Z,14.03
2023-03-21T23:48:54.606Z,15.57
2023-03-21T23:51:23.007Z,14.63
2023-03-21T23:53:53.277Z,15.20
2023-03-21T23:56:27.068Z,13.93
2023-03-21T23:58:56.911Z,15.90
